createdAt,value
2022-12-13T00:01:24.692Z,100824.72
2022-12-13T00:03:59.562Z,100826.34
2022-12-13T00:06:26.998Z,100817.59
2022-12-13T00:08:54.285Z,100814.94
2022-12-13T00:11:21.409Z,100823.59
2022-12-13T00:13:48.558Z,100821.78
2022-12-13T00:16:22.521Z,100818.31
2022-12-13T00:18:51.349Z,100810.44
2022-12-13T00:21:20.458Z,100806.06
2022-12-13T00:23:47.891Z,100796.56
2022-12-13T00:26:18.653Z,100789.59
2022-12-13T00:28:49.029Z,100789.59
2022-12-13T00:31:53.332Z,100780.84
2022-12-13T00:34:07.106Z,100783.34
2022-12-13T00:36:33.984Z,100789.22
2022-12-13T00:39:00.889Z,100791.72
2022-12-13T00:41:34.667Z,100795.09
2022-12-13T00:44:02.832Z,100797.56
2022-12-13T00:46:30.588Z,100800.00
2022-12-13T00:49:00.590Z,100801.69
2022-12-13T00:51:30.599Z,100795.59
2022-12-13T00:53:58.546Z,100802.41
2022-12-13T00:56:33.825Z,100777.34
2022-12-13T01:00:34.641Z,100786.88
2022-12-13T01:03:20.172Z,100781.16
2022-12-13T01:06:14.230Z,100773.28
2022-12-13T01:08:34.831Z,100775.78
2022-12-13T01:11:01.697Z,100784.34
2022-12-13T01:13:28.537Z,100768.84
2022-12-13T01:15:55.309Z,100772.41
2022-12-13T01:18:22.068Z,100775.78
2022-12-13T01:21:07.826Z,100765.44
2022-12-13T01:23:34.786Z,100772.22
2022-12-13T01:26:06.640Z,100768.84
2022-12-13T01:28:33.942Z,100770.44
2022-12-13T01:31:04.916Z,100772.00
2022-12-13T01:33:32.765Z,100770.25
2022-12-13T01:36:06.239Z,100768.47
2022-12-13T01:38:37.931Z,100774.41
2022-12-13T01:41:08.913Z,100778.50
2022-12-13T01:43:44.749Z,100778.41
2022-12-13T01:46:14.148Z,100774.13
2022-12-13T01:48:49.590Z,100778.41
2022-12-13T01:51:19.566Z,100763.63
2022-12-13T01:53:48.916Z,100757.56
2022-12-13T01:56:28.361Z,100766.19
2022-12-13T01:58:56.716Z,100762.63
2022-12-13T02:01:24.564Z,100761.81
2022-12-13T02:03:51.350Z,100766.09
2022-12-13T02:06:27.453Z,100768.69
2022-12-13T02:08:54.557Z,100767.78
2022-12-13T02:11:21.915Z,100772.88
2022-12-13T02:13:48.744Z,100759.84
2022-12-13T02:16:42.813Z,100764.13
2022-12-13T02:20:02.565Z,100771.59
2022-12-13T02:23:11.261Z,100779.94
2022-12-13T02:26:19.396Z,100782.25
2022-12-13T02:29:13.149Z,100786.50
2022-12-13T02:32:29.716Z,100775.22
2022-12-13T02:35:11.265Z,100768.94
2022-12-13T02:37:49.935Z,100777.56
2022-12-13T02:40:28.231Z,100779.38
2022-12-13T02:43:11.892Z,100776.00
2022-12-13T02:45:45.910Z,100764.78
2022-12-13T02:48:17.104Z,100762.19
2022-12-13T02:50:46.402Z,100750.97
2022-12-13T02:53:14.206Z,100752.66
2022-12-13T02:55:41.156Z,100749.28
2022-12-13T02:58:12.324Z,100744.09
2022-12-13T03:01:28.939Z,100748.28
2022-12-13T03:04:26.116Z,100742.91
2022-12-13T03:07:12.169Z,100744.50
2022-12-13T03:10:02.748Z,100751.28
2022-12-13T03:13:09.821Z,100745.09
2022-12-13T03:15:49.810Z,100739.66
2022-12-13T03:18:21.528Z,100750.88
2022-12-13T03:20:52.622Z,100741.38
2022-12-13T03:23:21.354Z,100748.28
2022-12-13T03:25:55.744Z,100745.72
2022-12-13T03:28:23.779Z,100748.28
2022-12-13T03:30:50.622Z,100744.75
2022-12-13T03:33:17.622Z,100739.59
2022-12-13T03:35:45.737Z,100742.16
2022-12-13T03:38:22.414Z,100737.78
2022-12-13T03:40:53.531Z,100734.19
2022-12-13T03:43:21.813Z,100732.44
2022-12-13T03:45:52.942Z,100727.28
2022-12-13T03:48:21.693Z,100731.63
2022-12-13T03:50:51.139Z,100726.44
2022-12-13T03:53:22.735Z,100720.31
2022-12-13T03:56:01.868Z,100713.38
2022-12-13T03:58:35.626Z,100721.22
2022-12-13T04:01:14.527Z,100730.66
2022-12-13T04:03:44.095Z,100737.50
2022-12-13T04:06:11.977Z,100738.28
2022-12-13T04:08:39.832Z,100739.06
2022-12-13T04:11:26.243Z,100737.38
2022-12-13T04:13:54.459Z,100728.66
2022-12-13T04:16:22.778Z,100727.78
2022-12-13T04:18:49.635Z,100732.84
2022-12-13T04:21:16.444Z,100729.47
2022-12-13T04:23:43.255Z,100729.47
2022-12-13T04:26:10.294Z,100719.94
2022-12-13T04:28:37.089Z,100727.66
2022-12-13T04:31:04.394Z,100734.53
2022-12-13T04:33:32.665Z,100731.03
2022-12-13T04:35:59.773Z,100737.03
2022-12-13T04:38:26.625Z,100728.38
2022-12-13T04:40:53.412Z,100737.03
2022-12-13T04:43:20.212Z,100732.75
2022-12-13T04:45:47.053Z,100730.19
2022-12-13T04:48:13.922Z,100732.84
2022-12-13T04:51:01.134Z,100739.91
2022-12-13T04:53:30.076Z,100737.59
2022-12-13T04:55:57.024Z,100737.06
2022-12-13T04:58:23.820Z,100738.38
2022-12-13T05:00:50.606Z,100733.59
2022-12-13T05:03:17.435Z,100732.16
2022-12-13T05:05:44.273Z,100721.44
2022-12-13T05:08:11.155Z,100719.91
2022-12-13T05:10:38.259Z,100718.50
2022-12-13T05:13:06.131Z,100717.78
2022-12-13T05:15:33.902Z,100717.19
2022-12-13T05:18:09.511Z,100717.28
2022-12-13T05:20:37.681Z,100711.44
2022-12-13T05:23:04.457Z,100701.09
2022-12-13T05:25:31.217Z,100696.78
2022-12-13T05:27:58.008Z,100695.03
2022-12-13T05:30:24.792Z,100688.97
2022-12-13T05:32:51.605Z,100690.75
2022-12-13T05:35:22.646Z,100689.75
2022-12-13T05:37:54.315Z,100691.28
2022-12-13T05:40:23.579Z,100694.53
2022-12-13T05:42:50.478Z,100692.69
2022-12-13T05:45:20.752Z,100698.53
2022-12-13T05:47:48.346Z,100700.94
2022-12-13T05:57:18.532Z,100697.22
2022-12-13T05:59:45.403Z,100705.88
2022-12-13T06:02:16.773Z,100703.19
2022-12-13T06:04:46.629Z,100710.94
2022-12-13T06:07:14.172Z,100706.75
2022-12-13T06:09:40.984Z,100706.75
2022-12-13T06:12:31.236Z,100705.97
2022-12-13T06:14:54.596Z,100710.34
2022-12-13T06:17:36.645Z,100700.88
2022-12-13T06:20:23.810Z,100702.69
2022-12-13T06:22:52.783Z,100709.53
2022-12-13T06:25:30.694Z,100715.69
2022-12-13T06:28:01.078Z,100716.47
2022-12-13T06:30:29.591Z,100709.75
2022-12-13T06:32:57.078Z,100721.84
2022-12-13T06:35:28.989Z,100708.91
2022-12-13T06:38:01.385Z,100721.03
2022-12-13T06:40:33.657Z,100719.34
2022-12-13T06:43:00.786Z,100715.09
2022-12-13T06:45:27.563Z,100717.78
2022-12-13T06:47:55.230Z,100716.25
2022-12-13T06:50:21.993Z,100717.22
2022-12-13T06:52:48.879Z,100717.34
2022-12-13T06:55:23.659Z,100726.16
2022-12-13T06:57:51.593Z,100719.31
2022-12-13T07:00:22.166Z,100723.56
2022-12-13T07:02:55.940Z,100718.50
2022-12-13T07:05:23.405Z,100722.78
2022-12-13T07:07:50.289Z,100728.84
2022-12-13T07:10:22.723Z,100727.94
2022-12-13T07:12:50.286Z,100734.03
2022-12-13T07:15:19.973Z,100734.13
2022-12-13T07:17:50.704Z,100736.72
2022-12-13T07:20:19.105Z,100732.63
2022-12-13T07:22:49.283Z,100728.25
2022-12-13T07:25:28.516Z,100733.50
2022-12-13T07:28:03.245Z,100734.41
2022-12-13T07:30:33.211Z,100736.16
2022-12-13T07:33:02.744Z,100734.47
2022-12-13T07:35:30.150Z,100734.59
2022-12-13T07:37:57.002Z,100738.06
2022-12-13T07:40:23.912Z,100750.25
2022-12-13T07:42:55.340Z,100746.09
2022-12-13T07:45:23.955Z,100745.19
2022-12-13T07:47:51.083Z,100744.41
2022-12-13T07:50:24.620Z,100739.25
2022-12-13T07:52:53.324Z,100746.16
2022-12-13T07:55:23.029Z,100746.28
2022-12-13T07:58:13.244Z,100741.28
2022-12-13T08:00:45.985Z,100740.50
2022-12-13T08:03:25.236Z,100747.56
2022-12-13T08:06:08.680Z,100746.03
2022-12-13T08:08:35.776Z,100750.50
2022-12-13T08:11:08.626Z,100756.72
2022-12-13T08:13:36.184Z,100756.03
2022-12-13T08:16:28.025Z,100746.09
2022-12-13T08:18:53.760Z,100749.75
2022-12-13T08:24:20.662Z,100746.81
2022-12-13T08:26:47.624Z,100750.56
2022-12-13T08:29:23.207Z,100762.94
2022-12-13T08:32:05.260Z,100749.50
2022-12-13T08:34:32.120Z,100755.03
2022-12-13T08:37:02.126Z,100746.75
2022-12-13T08:39:36.927Z,100741.13
2022-12-13T08:42:19.558Z,100742.97
2022-12-13T08:44:49.839Z,100745.94
2022-12-13T08:47:23.152Z,100740.22
2022-12-13T08:50:02.217Z,100744.03
2022-12-13T08:52:40.649Z,100739.13
2022-12-13T08:55:13.711Z,100740.28
2022-12-13T08:57:42.844Z,100741.53
2022-12-13T09:00:17.543Z,100751.31
2022-12-13T09:02:44.493Z,100754.28
2022-12-13T09:05:12.829Z,100759.81
2022-12-13T09:07:40.942Z,100750.66
2022-12-13T09:10:26.636Z,100757.91
2022-12-13T09:13:01.640Z,100754.81
2022-12-13T09:15:34.270Z,100755.97
2022-12-13T09:18:05.036Z,100759.81
2022-12-13T09:20:40.886Z,100760.97
2022-12-13T09:23:14.019Z,100762.28
2022-12-13T09:26:05.220Z,100759.13
2022-12-13T09:28:35.100Z,100760.34
2022-12-13T09:31:16.179Z,100755.50
2022-12-13T09:33:44.419Z,100755.81
2022-12-13T09:36:15.771Z,100754.34
2022-12-13T09:38:42.729Z,100759.97
2022-12-13T09:41:28.913Z,100751.59
2022-12-13T09:44:31.617Z,100755.44
2022-12-13T09:47:13.344Z,100747.00
2022-12-13T09:49:44.297Z,100749.97
2022-12-13T09:52:22.445Z,100750.41
2022-12-13T09:54:55.971Z,100751.59
2022-12-13T09:57:34.163Z,100740.63
2022-12-13T10:00:23.792Z,100730.59
2022-12-13T10:02:57.853Z,100737.84
2022-12-13T10:05:39.396Z,100746.78
2022-12-13T10:08:23.249Z,100740.16
2022-12-13T10:10:52.971Z,100735.06
2022-12-13T10:13:41.844Z,100737.97
2022-12-13T10:16:23.481Z,100733.00
2022-12-13T10:18:51.331Z,100735.75
2022-12-13T10:21:26.654Z,100723.88
2022-12-13T10:24:23.662Z,100726.63
2022-12-13T10:26:40.457Z,100727.75
2022-12-13T10:29:08.320Z,100724.41
2022-12-13T10:31:52.748Z,100722.03
2022-12-13T10:34:30.734Z,100723.97
2022-12-13T10:36:59.609Z,100718.94
2022-12-13T10:39:42.526Z,100719.19
2022-12-13T10:42:22.898Z,100716.69
2022-12-13T10:45:15.099Z,100712.53
2022-12-13T10:47:45.987Z,100719.63
2022-12-13T10:50:27.910Z,100710.31
2022-12-13T10:52:56.770Z,100707.75
2022-12-13T10:55:35.061Z,100707.97
2022-12-13T10:58:12.058Z,100702.06
2022-12-13T11:00:47.355Z,100703.00
2022-12-13T11:03:32.857Z,100706.69
2022-12-13T11:06:18.051Z,100701.63
2022-12-13T11:08:44.851Z,100700.84
2022-12-13T11:11:12.423Z,100698.41
2022-12-13T11:13:53.603Z,100700.31
2022-12-13T11:16:40.923Z,100702.16
2022-12-13T11:19:23.337Z,100693.59
2022-12-13T11:21:54.295Z,100686.75
2022-12-13T11:24:25.015Z,100686.91
2022-12-13T11:27:03.400Z,100681.00
2022-12-13T11:30:01.063Z,100664.75
2022-12-13T11:32:39.794Z,100668.28
2022-12-13T11:35:21.278Z,100666.66
2022-12-13T11:38:42.253Z,100673.78
2022-12-13T11:41:32.597Z,100665.16
2022-12-13T11:44:11.715Z,100675.69
2022-12-13T11:46:55.536Z,100663.78
2022-12-13T11:49:42.240Z,100656.19
2022-12-13T11:52:29.960Z,100657.22
2022-12-13T11:55:00.029Z,100652.94
2022-12-13T11:57:51.125Z,100648.03
2022-12-13T12:00:35.491Z,100648.16
2022-12-13T12:03:35.333Z,100649.13
2022-12-13T12:06:09.276Z,100636.22
2022-12-13T12:08:48.245Z,100632.81
2022-12-13T12:11:43.880Z,100637.19
2022-12-13T12:14:43.777Z,100634.78
2022-12-13T12:17:16.286Z,100636.69
2022-12-13T12:19:46.749Z,100632.56
2022-12-13T12:22:48.121Z,100641.41
2022-12-13T12:25:20.527Z,100639.81
2022-12-13T12:28:10.510Z,100631.28
2022-12-13T12:31:02.073Z,100632.31
2022-12-13T12:34:05.404Z,100635.06
2022-12-13T12:37:14.638Z,100626.44
2022-12-13T12:40:15.209Z,100624.75
2022-12-13T12:43:15.458Z,100623.13
2022-12-13T12:46:22.853Z,100626.66
2022-12-13T12:49:34.204Z,100620.72
2022-12-13T12:52:30.687Z,100620.72
2022-12-13T12:55:18.496Z,100623.34
2022-12-13T12:58:01.318Z,100620.06
2022-12-13T13:00:39.321Z,100621.91
2022-12-13T13:03:25.223Z,100617.63
2022-12-13T13:06:06.078Z,100617.63
2022-12-13T13:09:01.464Z,100612.50
2022-12-13T13:11:34.585Z,100618.53
2022-12-13T13:14:31.639Z,100620.31
2022-12-13T13:17:00.668Z,100612.50
2022-12-13T13:19:33.459Z,100615.22
2022-12-13T13:22:01.501Z,100606.59
2022-12-13T13:24:31.611Z,100607.53
2022-12-13T13:27:19.520Z,100600.63
2022-12-13T13:29:46.379Z,100601.47
2022-12-13T13:32:28.480Z,100591.06
2022-12-13T13:35:28.563Z,100598.03
2022-12-13T13:37:55.990Z,100599.72
2022-12-13T13:40:35.765Z,100604.06
2022-12-13T13:43:05.626Z,100614.47
2022-12-13T13:45:51.448Z,100619.69
2022-12-13T13:48:59.549Z,100603.91
2022-12-13T13:52:27.370Z,100608.25
2022-12-13T13:55:48.641Z,100618.47
2022-12-13T13:58:50.919Z,100604.56
2022-12-13T14:02:09.300Z,100600.09
2022-12-13T14:05:18.390Z,100608.78
2022-12-13T14:08:28.990Z,100606.84
2022-12-13T14:11:19.904Z,100604.19
2022-12-13T14:14:41.931Z,100605.84
2022-12-13T14:18:00.750Z,100599.63
2022-12-13T14:21:02.125Z,100603.81
2022-12-13T14:24:05.817Z,100605.47
2022-12-13T14:26:59.118Z,100610.56
2022-12-13T14:29:38.649Z,100602.63
2022-12-13T14:32:26.667Z,100603.44
2022-12-13T14:34:58.517Z,100601.66
2022-12-13T14:37:34.552Z,100604.19
2022-12-13T14:40:12.137Z,100610.16
2022-12-13T14:42:38.959Z,100614.41
2022-12-13T14:45:28.440Z,100609.97
2022-12-13T14:48:01.352Z,100603.75
2022-12-13T14:50:32.390Z,100606.22
2022-12-13T14:53:03.021Z,100606.09
2022-12-13T14:55:36.521Z,100611.28
2022-12-13T14:58:18.074Z,100612.00
2022-12-13T15:00:45.997Z,100621.44
2022-12-13T15:03:24.910Z,100624.72
2022-12-13T15:05:58.962Z,100630.69
2022-12-13T15:08:27.367Z,100621.81
2022-12-13T15:10:59.722Z,100624.22
2022-12-13T15:13:41.639Z,100624.81
2022-12-13T15:16:25.524Z,100618.47
2022-12-13T15:19:30.931Z,100621.63
2022-12-13T15:22:07.525Z,100623.16
2022-12-13T15:24:39.093Z,100621.22
2022-12-13T15:27:07.989Z,100615.00
2022-12-13T15:29:37.050Z,100615.75
2022-12-13T15:32:04.245Z,100618.19
2022-12-13T15:34:36.904Z,100610.28
2022-12-13T15:37:28.381Z,100605.69
2022-12-13T15:40:02.418Z,100607.94
2022-12-13T15:42:46.692Z,100601.66
2022-12-13T15:45:24.520Z,100610.94
2022-12-13T15:47:53.016Z,100604.69
2022-12-13T15:50:43.680Z,100599.25
2022-12-13T15:53:28.597Z,100600.00
2022-12-13T15:55:55.794Z,100602.31
2022-12-13T15:58:27.149Z,100603.88
2022-12-13T16:00:54.387Z,100601.97
2022-12-13T16:03:25.081Z,100598.34
2022-12-13T16:05:56.929Z,100598.13
2022-12-13T16:08:36.926Z,100602.41
2022-12-13T16:11:05.143Z,100600.50
2022-12-13T16:13:37.831Z,100595.19
2022-12-13T16:16:29.953Z,100592.41
2022-12-13T16:19:00.705Z,100600.06
2022-12-13T16:21:29.903Z,100587.75
2022-12-13T16:23:56.661Z,100593.72
2022-12-13T16:26:27.522Z,100584.94
2022-12-13T16:28:57.731Z,100581.38
2022-12-13T16:31:36.415Z,100578.72
2022-12-13T16:34:05.205Z,100574.34
2022-12-13T16:36:32.660Z,100573.38
2022-12-13T16:38:59.483Z,100556.84
2022-12-13T16:41:26.266Z,100556.84
2022-12-13T16:43:56.783Z,100550.84
2022-12-13T16:47:16.835Z,100556.94
2022-12-13T16:49:29.952Z,100549.06
2022-12-13T16:51:57.189Z,100550.75
2022-12-13T16:54:25.506Z,100550.69
2022-12-13T16:56:54.019Z,100554.94
2022-12-13T16:59:25.553Z,100549.66
2022-12-13T17:01:52.982Z,100559.16
2022-12-13T17:04:24.457Z,100552.16
2022-12-13T17:06:54.739Z,100557.22
2022-12-13T17:09:22.552Z,100554.50
2022-12-13T17:11:49.335Z,100561.31
2022-12-13T17:14:16.117Z,100564.75
2022-12-13T17:16:43.005Z,100551.59
2022-12-13T17:19:11.938Z,100552.41
2022-12-13T17:21:38.722Z,100542.88
2022-12-13T17:24:05.905Z,100551.44
2022-12-13T17:26:32.722Z,100559.09
2022-12-13T17:28:59.530Z,100554.72
2022-12-13T17:31:29.238Z,100562.41
2022-12-13T17:34:02.680Z,100555.41
2022-12-13T17:36:31.247Z,100556.06
2022-12-13T17:38:58.028Z,100549.00
2022-12-13T17:41:25.129Z,100553.28
2022-12-13T17:43:51.903Z,100552.34
2022-12-13T17:46:19.332Z,100547.88
2022-12-13T17:48:46.610Z,100546.84
2022-12-13T17:51:14.405Z,100544.16
2022-12-13T17:53:43.577Z,100550.13
2022-12-13T17:56:14.989Z,100549.09
2022-12-13T17:58:42.516Z,100544.47
2022-12-13T18:01:23.561Z,100552.16
2022-12-13T18:03:54.033Z,100556.31
2022-12-13T18:06:20.901Z,100567.34
2022-12-13T18:08:48.335Z,100561.22
2022-12-13T18:11:34.466Z,100567.03
2022-12-13T18:14:04.956Z,100565.19
2022-12-13T18:16:36.971Z,100556.38
2022-12-13T18:19:11.620Z,100558.97
2022-12-13T18:21:38.555Z,100556.84
2022-12-13T18:24:07.030Z,100547.00
2022-12-13T18:26:34.530Z,100546.03
2022-12-13T18:29:01.874Z,100546.91
2022-12-13T18:31:28.739Z,100542.47
2022-12-13T18:33:56.037Z,100541.50
2022-12-13T18:36:25.168Z,100546.69
2022-12-13T18:38:52.691Z,100542.25
2022-12-13T18:41:23.240Z,100533.44
2022-12-13T18:43:59.280Z,100547.19
2022-12-13T18:46:27.515Z,100543.63
2022-12-13T18:48:54.329Z,100543.47
2022-12-13T18:51:21.318Z,100542.44
2022-12-13T18:53:48.112Z,100538.84
2022-12-13T18:56:19.048Z,100544.88
2022-12-13T18:58:47.937Z,100534.34
2022-12-13T19:01:16.448Z,100539.47
2022-12-13T19:03:47.896Z,100536.78
2022-12-13T19:06:22.250Z,100537.50
2022-12-13T19:08:52.451Z,100544.31
2022-12-13T19:11:20.287Z,100533.81
2022-12-13T19:13:48.340Z,100534.59
2022-12-13T19:16:19.922Z,100532.81
2022-12-13T19:18:46.941Z,100533.63
2022-12-13T19:21:17.244Z,100531.78
2022-12-13T19:23:47.326Z,100527.41
2022-12-13T19:26:16.769Z,100524.72
2022-12-13T19:28:44.445Z,100523.00
2022-12-13T19:31:15.706Z,100516.88
2022-12-13T19:33:43.655Z,100521.19
2022-12-13T19:36:11.364Z,100513.31
2022-12-13T19:38:39.739Z,100510.66
2022-12-13T19:41:10.901Z,100509.69
2022-12-13T19:43:37.814Z,100501.75
2022-12-13T19:46:05.281Z,100499.00
2022-12-13T19:48:32.477Z,100496.34
2022-12-13T19:51:03.827Z,100504.03
2022-12-13T19:53:31.159Z,100500.38
2022-12-13T19:55:58.635Z,100492.44
2022-12-13T19:58:26.496Z,100504.53
2022-12-13T20:01:00.908Z,100497.63
2022-12-13T20:03:28.168Z,100491.47
2022-12-13T20:05:59.879Z,100487.91
2022-12-13T20:08:26.725Z,100487.91
2022-12-13T20:10:59.855Z,100481.84
2022-12-13T20:13:27.122Z,100480.09
2022-12-13T20:15:54.819Z,100473.13
2022-12-13T20:18:21.777Z,100471.44
2022-12-13T20:21:10.369Z,100467.84
2022-12-13T20:23:37.163Z,100466.97
2022-12-13T20:26:08.557Z,100468.69
2022-12-13T20:28:35.323Z,100462.44
2022-12-13T20:31:20.601Z,100459.84
2022-12-13T20:33:48.036Z,100459.78
2022-12-13T20:36:26.960Z,100456.31
2022-12-13T20:38:56.515Z,100460.50
2022-12-13T20:41:25.813Z,100455.31
2022-12-13T20:43:58.198Z,100452.81
2022-12-13T20:46:27.194Z,100456.97
2022-12-13T20:48:57.415Z,100438.66
2022-12-13T20:51:27.364Z,100439.50
2022-12-13T20:53:55.314Z,100433.34
2022-12-13T20:56:25.733Z,100429.75
2022-12-13T20:58:52.701Z,100429.69
2022-12-13T21:01:25.307Z,100432.13
2022-12-13T21:03:58.325Z,100433.75
2022-12-13T21:06:25.072Z,100428.31
2022-12-13T21:08:51.899Z,100424.75
2022-12-13T21:11:28.744Z,100430.81
2022-12-13T21:14:11.210Z,100427.28
2022-12-13T21:16:45.776Z,100433.25
2022-12-13T21:19:25.167Z,100426.22
2022-12-13T21:21:53.766Z,100429.53
2022-12-13T21:24:23.040Z,100421.75
2022-12-13T21:26:51.141Z,100408.75
2022-12-13T21:29:18.674Z,100406.25
2022-12-13T21:31:49.777Z,100408.91
2022-12-13T21:34:17.620Z,100407.13
2022-12-13T21:36:46.981Z,100401.97
2022-12-13T21:39:17.058Z,100408.03
2022-12-13T21:41:44.658Z,100400.19
2022-12-13T21:44:14.312Z,100397.69
2022-12-13T21:47:10.675Z,100398.47
2022-12-13T21:49:28.889Z,100400.97
2022-12-13T21:51:55.886Z,100404.56
2022-12-13T21:54:22.727Z,100397.59
2022-12-13T21:57:08.355Z,100385.56
2022-12-13T21:59:35.180Z,100401.81
2022-12-13T22:02:11.635Z,100399.22
2022-12-13T22:04:52.769Z,100398.41
2022-12-13T22:07:26.629Z,100394.94
2022-12-13T22:09:55.125Z,100398.41
2022-12-13T22:12:30.195Z,100395.00
2022-12-13T22:14:57.026Z,100380.38
2022-12-13T22:17:33.035Z,100389.03
2022-12-13T22:20:02.586Z,100387.25
2022-12-13T22:22:29.501Z,100386.44
2022-12-13T22:24:56.327Z,100395.00
2022-12-13T22:27:24.362Z,100385.56
2022-12-13T22:29:59.578Z,100382.06
2022-12-13T22:32:30.239Z,100382.88
2022-12-13T22:34:56.997Z,100389.69
2022-12-13T22:37:24.715Z,100386.19
2022-12-13T22:39:51.513Z,100382.72
2022-12-13T22:42:18.279Z,100373.13
2022-12-13T22:44:45.038Z,100379.00
2022-12-13T22:47:11.872Z,100374.56
2022-12-13T22:49:38.818Z,100364.94
2022-12-13T22:52:05.819Z,100365.75
2022-12-13T22:54:32.616Z,100367.47
2022-12-13T22:56:59.370Z,100364.78
2022-12-13T22:59:26.129Z,100362.03
2022-12-13T23:02:01.353Z,100364.63
2022-12-13T23:04:29.111Z,100353.25
2022-12-13T23:06:55.909Z,100353.25
2022-12-13T23:09:22.908Z,100344.50
2022-12-13T23:12:08.113Z,100345.38
2022-12-13T23:14:34.925Z,100341.03
2022-12-13T23:17:03.068Z,100335.75
2022-12-13T23:19:41.541Z,100337.38
2022-12-13T23:22:15.965Z,100326.94
2022-12-13T23:24:42.896Z,100325.16
2022-12-13T23:27:09.725Z,100322.53
2022-12-13T23:29:36.660Z,100313.88
2022-12-13T23:32:03.729Z,100326.66
2022-12-13T23:34:31.282Z,100323.19
2022-12-13T23:36:58.066Z,100322.19
2022-12-13T23:39:24.843Z,100326.47
2022-12-13T23:41:51.929Z,100316.97
2022-12-13T23:44:18.708Z,100314.28
2022-12-13T23:46:48.255Z,100315.97
2022-12-13T23:49:16.439Z,100318.56
2022-12-13T23:51:43.294Z,100315.97
2022-12-13T23:54:16.124Z,100308.22
2022-12-13T23:56:43.069Z,100303.84
2022-12-13T23:59:10.081Z,100308.13
